sensor_id;sensor_type;location;lat;lon;timestamp;temperature;humidity
3923;DHT22;1976;51.694;6.256;2023-05-17T00:02:02;9.40;99.90
3923;DHT22;1976;51.694;6.256;2023-05-17T00:04:27;9.40;99.90
3923;DHT22;1976;51.694;6.256;2023-05-17T00:06:53;9.50;99.90
3923;DHT22;1976;51.694;6.256;2023-05-17T00:09:18;9.50;99.90
3923;DHT22;1976;51.694;6.256;2023-05-17T00:11:44;9.50;99.90
3923;DHT22;1976;51.694;6.256;2023-05-17T00:14:10;9.50;99.90
3923;DHT22;1976;51.694;6.256;2023-05-17T00:16:36;9.50;99.90
3923;DHT22;1976;51.694;6.256;2023-05-17T00:19:02;9.50;99.90
3923;DHT22;1976;51.694;6.256;2023-05-17T00:21:27;9.50;99.90
3923;DHT22;1976;51.694;6.256;2023-05-17T00:23:53;9.50;99.90
3923;DHT22;1976;51.694;6.256;2023-05-17T00:26:19;9.70;99.90
3923;DHT22;1976;51.694;6.256;2023-05-17T00:28:44;9.40;99.90
3923;DHT22;1976;51.694;6.256;2023-05-17T00:31:10;9.50;99.90
3923;DHT22;1976;51.694;6.256;2023-05-17T00:33:36;9.50;99.90
3923;DHT22;1976;51.694;6.256;2023-05-17T00:36:02;9.50;99.90
3923;DHT22;1976;51.694;6.256;2023-05-17T00:38:28;9.50;99.90
3923;DHT22;1976;51.694;6.256;2023-05-17T00:40:53;9.50;99.90
3923;DHT22;1976;51.694;6.256;2023-05-17T00:43:19;9.50;99.90
3923;DHT22;1976;51.694;6.256;2023-05-17T00:45:45;9.40;99.90
3923;DHT22;1976;51.694;6.256;2023-05-17T00:48:13;9.40;99.90
3923;DHT22;1976;51.694;6.256;2023-05-17T00:50:39;9.40;99.90
3923;DHT22;1976;51.694;6.256;2023-05-17T00:53:06;9.40;99.90
3923;DHT22;1976;51.694;6.256;2023-05-17T00:55:32;9.30;99.90
3923;DHT22;1976;51.694;6.256;2023-05-17T00:57:58;9.30;99.90
3923;DHT22;1976;51.694;6.256;2023-05-17T01:00:23;9.30;99.90
3923;DHT22;1976;51.694;6.256;2023-05-17T01:02:49;9.20;99.90
3923;DHT22;1976;51.694;6.256;2023-05-17T01:05:15;9.20;99.90
3923;DHT22;1976;51.694;6.256;2023-05-17T01:07:41;9.20;99.90
3923;DHT22;1976;51.694;6.256;2023-05-17T01:10:07;9.20;99.90
3923;DHT22;1976;51.694;6.256;2023-05-17T01:13:48;9.10;99.90
3923;DHT22;1976;51.694;6.256;2023-05-17T01:15:45;9.10;99.90
3923;DHT22;1976;51.694;6.256;2023-05-17T01:18:14;9.00;99.90
3923;DHT22;1976;51.694;6.256;2023-05-17T01:20:46;9.00;99.90
3923;DHT22;1976;51.694;6.256;2023-05-17T01:28:33;9.00;99.90
3923;DHT22;1976;51.694;6.256;2023-05-17T01:31:02;9.00;99.90
3923;DHT22;1976;51.694;6.256;2023-05-17T01:33:28;8.90;99.90
3923;DHT22;1976;51.694;6.256;2023-05-17T01:35:54;8.90;99.90
3923;DHT22;1976;51.694;6.256;2023-05-17T01:38:20;10.60;99.90
3923;DHT22;1976;51.694;6.256;2023-05-17T01:40:57;8.90;99.90
3923;DHT22;1976;51.694;6.256;2023-05-17T01:43:40;8.90;99.90
3923;DHT22;1976;51.694;6.256;2023-05-17T01:49:16;8.80;99.90
3923;DHT22;1976;51.694;6.256;2023-05-17T01:52:06;8.80;99.90
3923;DHT22;1976;51.694;6.256;2023-05-17T01:55:33;8.80;99.90
3923;DHT22;1976;51.694;6.256;2023-05-17T01:57:42;8.70;99.90
3923;DHT22;1976;51.694;6.256;2023-05-17T02:00:10;8.70;99.90
3923;DHT22;1976;51.694;6.256;2023-05-17T02:02:36;8.70;99.90
3923;DHT22;1976;51.694;6.256;2023-05-17T02:05:02;8.70;99.90
3923;DHT22;1976;51.694;6.256;2023-05-17T02:07:28;8.70;99.90
3923;DHT22;1976;51.694;6.256;2023-05-17T02:09:53;8.60;99.90
3923;DHT22;1976;51.694;6.256;2023-05-17T02:14:45;8.60;99.90
3923;DHT22;1976;51.694;6.256;2023-05-17T02:17:11;12.10;99.90
3923;DHT22;1976;51.694;6.256;2023-05-17T02:19:37;8.60;99.90
3923;DHT22;1976;51.694;6.256;2023-05-17T02:22:03;8.50;99.90
3923;DHT22;1976;51.694;6.256;2023-05-17T02:24:28;8.50;99.90
3923;DHT22;1976;51.694;6.256;2023-05-17T02:26:54;8.50;99.90
3923;DHT22;1976;51.694;6.256;2023-05-17T02:29:20;8.40;99.90
3923;DHT22;1976;51.694;6.256;2023-05-17T02:31:45;8.30;99.90
3923;DHT22;1976;51.694;6.256;2023-05-17T02:34:11;8.30;99.90
3923;DHT22;1976;51.694;6.256;2023-05-17T02:39:02;8.20;99.90
3923;DHT22;1976;51.694;6.256;2023-05-17T02:41:28;8.20;99.90
3923;DHT22;1976;51.694;6.256;2023-05-17T02:43:54;8.20;99.90
3923;DHT22;1976;51.694;6.256;2023-05-17T02:46:19;8.10;99.90
3923;DHT22;1976;51.694;6.256;2023-05-17T02:48:46;8.10;99.90
3923;DHT22;1976;51.694;6.256;2023-05-17T02:51:11;8.10;99.90
3923;DHT22;1976;51.694;6.256;2023-05-17T03:10:39;8.50;99.90
3923;DHT22;1976;51.694;6.256;2023-05-17T03:13:04;8.60;99.90
3923;DHT22;1976;51.694;6.256;2023-05-17T03:15:30;8.70;99.90
3923;DHT22;1976;51.694;6.256;2023-05-17T03:17:56;8.80;99.90
3923;DHT22;1976;51.694;6.256;2023-05-17T03:20:22;9.20;99.90
3923;DHT22;1976;51.694;6.256;2023-05-17T03:22:48;8.90;99.90
3923;DHT22;1976;51.694;6.256;2023-05-17T03:25:13;8.90;99.90
3923;DHT22;1976;51.694;6.256;2023-05-17T03:27:39;9.00;99.90
3923;DHT22;1976;51.694;6.256;2023-05-17T03:30:05;9.00;99.90
3923;DHT22;1976;51.694;6.256;2023-05-17T03:32:31;9.10;99.90
3923;DHT22;1976;51.694;6.256;2023-05-17T03:34:57;9.20;99.90
3923;DHT22;1976;51.694;6.256;2023-05-17T03:37:23;9.20;99.90
3923;DHT22;1976;51.694;6.256;2023-05-17T03:39:48;9.30;99.90
3923;DHT22;1976;51.694;6.256;2023-05-17T03:47:06;9.30;99.90
3923;DHT22;1976;51.694;6.256;2023-05-17T03:49:32;9.30;99.90
3923;DHT22;1976;51.694;6.256;2023-05-17T03:54:24;9.20;99.90
3923;DHT22;1976;51.694;6.256;2023-05-17T03:56:50;9.20;99.90
3923;DHT22;1976;51.694;6.256;2023-05-17T03:59:16;9.10;99.90
3923;DHT22;1976;51.694;6.256;2023-05-17T04:01:42;9.00;99.90
3923;DHT22;1976;51.694;6.256;2023-05-17T04:04:08;9.00;99.90
3923;DHT22;1976;51.694;6.256;2023-05-17T04:06:34;9.00;99.90
3923;DHT22;1976;51.694;6.256;2023-05-17T04:09:00;9.00;99.90
3923;DHT22;1976;51.694;6.256;2023-05-17T04:13:53;9.00;99.90
3923;DHT22;1976;51.694;6.256;2023-05-17T04:18:45;9.00;99.90
3923;DHT22;1976;51.694;6.256;2023-05-17T04:21:11;9.00;99.90
3923;DHT22;1976;51.694;6.256;2023-05-17T04:23:37;9.10;99.90
3923;DHT22;1976;51.694;6.256;2023-05-17T04:26:03;8.90;99.90
3923;DHT22;1976;51.694;6.256;2023-05-17T04:28:30;9.30;99.90
3923;DHT22;1976;51.694;6.256;2023-05-17T04:30:56;9.30;99.90
3923;DHT22;1976;51.694;6.256;2023-05-17T04:33:22;9.30;99.90
3923;DHT22;1976;51.694;6.256;2023-05-17T04:35:49;9.40;99.90
3923;DHT22;1976;51.694;6.256;2023-05-17T04:38:15;9.50;99.90
3923;DHT22;1976;51.694;6.256;2023-05-17T04:43:08;9.60;99.90
3923;DHT22;1976;51.694;6.256;2023-05-17T04:45:34;9.60;99.90
3923;DHT22;1976;51.694;6.256;2023-05-17T04:48:00;9.70;99.90
3923;DHT22;1976;51.694;6.256;2023-05-17T04:50:26;9.80;99.90
3923;DHT22;1976;51.694;6.256;2023-05-17T05:00:10;10.20;99.90
3923;DHT22;1976;51.694;6.256;2023-05-17T05:02:36;10.30;99.90
3923;DHT22;1976;51.694;6.256;2023-05-17T05:05:02;10.40;99.90
3923;DHT22;1976;51.694;6.256;2023-05-17T05:07:31;10.50;99.90
3923;DHT22;1976;51.694;6.256;2023-05-17T05:12:23;10.60;99.90
3923;DHT22;1976;51.694;6.256;2023-05-17T05:14:49;10.70;99.90
3923;DHT22;1976;51.694;6.256;2023-05-17T05:17:15;10.70;99.90
3923;DHT22;1976;51.694;6.256;2023-05-17T05:22:07;10.90;99.90
3923;DHT22;1976;51.694;6.256;2023-05-17T05:24:33;10.80;99.90
3923;DHT22;1976;51.694;6.256;2023-05-17T05:26:58;11.00;99.90
3923;DHT22;1976;51.694;6.256;2023-05-17T05:31:50;11.10;99.90
3923;DHT22;1976;51.694;6.256;2023-05-17T05:34:16;11.20;99.90
3923;DHT22;1976;51.694;6.256;2023-05-17T05:41:34;11.70;99.90
3923;DHT22;1976;51.694;6.256;2023-05-17T05:51:18;12.50;99.90
3923;DHT22;1976;51.694;6.256;2023-05-17T05:53:44;12.70;99.90
3923;DHT22;1976;51.694;6.256;2023-05-17T05:56:09;12.90;99.90
3923;DHT22;1976;51.694;6.256;2023-05-17T06:01:01;13.10;99.90
3923;DHT22;1976;51.694;6.256;2023-05-17T06:13:12;13.50;99.90
3923;DHT22;1976;51.694;6.256;2023-05-17T06:18:04;13.70;99.90
3923;DHT22;1976;51.694;6.256;2023-05-17T06:20:29;13.80;99.90
3923;DHT22;1976;51.694;6.256;2023-05-17T06:25:21;14.00;99.90
3923;DHT22;1976;51.694;6.256;2023-05-17T06:30:13;14.20;99.90
3923;DHT22;1976;51.694;6.256;2023-05-17T06:40:03;14.80;99.90
3923;DHT22;1976;51.694;6.256;2023-05-17T06:49:49;15.30;99.10
3923;DHT22;1976;51.694;6.256;2023-05-17T06:52:15;15.40;99.00
3923;DHT22;1976;51.694;6.256;2023-05-17T06:57:07;15.50;98.80
3923;DHT22;1976;51.694;6.256;2023-05-17T06:59:35;15.60;98.70
3923;DHT22;1976;51.694;6.256;2023-05-17T07:06:53;15.70;98.30
3923;DHT22;1976;51.694;6.256;2023-05-17T07:09:19;15.80;97.90
3923;DHT22;1976;51.694;6.256;2023-05-17T07:11:46;15.90;97.90
3923;DHT22;1976;51.694;6.256;2023-05-17T07:21:30;15.80;98.10
3923;DHT22;1976;51.694;6.256;2023-05-17T07:23:56;15.90;98.20
3923;DHT22;1976;51.694;6.256;2023-05-17T07:26:22;16.20;98.30
3923;DHT22;1976;51.694;6.256;2023-05-17T07:28:48;16.40;97.00
3923;DHT22;1976;51.694;6.256;2023-05-17T07:31:13;16.40;97.30
3923;DHT22;1976;51.694;6.256;2023-05-17T07:33:39;16.50;97.20
3923;DHT22;1976;51.694;6.256;2023-05-17T07:36:05;16.40;96.80
3923;DHT22;1976;51.694;6.256;2023-05-17T07:38:31;16.50;96.60
3923;DHT22;1976;51.694;6.256;2023-05-17T07:41:00;16.40;96.60
3923;DHT22;1976;51.694;6.256;2023-05-17T07:43:26;16.50;97.20
3923;DHT22;1976;51.694;6.256;2023-05-17T07:45:51;16.60;96.60
3923;DHT22;1976;51.694;6.256;2023-05-17T07:50:47;16.70;94.70
3923;DHT22;1976;51.694;6.256;2023-05-17T07:53:31;16.90;94.90
3923;DHT22;1976;51.694;6.256;2023-05-17T07:59:06;17.00;95.10
3923;DHT22;1976;51.694;6.256;2023-05-17T08:03:58;17.40;94.90
3923;DHT22;1976;51.694;6.256;2023-05-17T08:06:24;17.40;95.20
3923;DHT22;1976;51.694;6.256;2023-05-17T08:11:25;17.60;93.80
3923;DHT22;1976;51.694;6.256;2023-05-17T08:13:50;17.70;93.20
3923;DHT22;1976;51.694;6.256;2023-05-17T08:16:16;17.70;93.10
3923;DHT22;1976;51.694;6.256;2023-05-17T08:18:41;17.80;93.10
3923;DHT22;1976;51.694;6.256;2023-05-17T08:21:07;17.90;92.60
3923;DHT22;1976;51.694;6.256;2023-05-17T08:23:33;17.90;92.30
3923;DHT22;1976;51.694;6.256;2023-05-17T08:25:58;19.80;93.10
3923;DHT22;1976;51.694;6.256;2023-05-17T08:28:24;18.00;92.60
3923;DHT22;1976;51.694;6.256;2023-05-17T08:30:49;18.00;92.40
3923;DHT22;1976;51.694;6.256;2023-05-17T08:33:15;18.20;92.00
3923;DHT22;1976;51.694;6.256;2023-05-17T08:35:41;18.20;91.60
3923;DHT22;1976;51.694;6.256;2023-05-17T08:38:06;18.10;91.00
3923;DHT22;1976;51.694;6.256;2023-05-17T08:47:26;18.00;90.70
3923;DHT22;1976;51.694;6.256;2023-05-17T08:49:58;17.90;90.60
3923;DHT22;1976;51.694;6.256;2023-05-17T08:52:28;17.90;91.00
3923;DHT22;1976;51.694;6.256;2023-05-17T08:54:54;18.90;91.20
3923;DHT22;1976;51.694;6.256;2023-05-17T08:57:21;20.10;88.30
3923;DHT22;1976;51.694;6.256;2023-05-17T08:59:50;21.00;84.70
3923;DHT22;1976;51.694;6.256;2023-05-17T09:02:16;21.50;84.40
3923;DHT22;1976;51.694;6.256;2023-05-17T09:04:42;21.80;83.60
3923;DHT22;1976;51.694;6.256;2023-05-17T09:07:08;22.30;81.80
3923;DHT22;1976;51.694;6.256;2023-05-17T09:09:33;22.80;81.30
3923;DHT22;1976;51.694;6.256;2023-05-17T09:11:59;22.90;75.90
3923;DHT22;1976;51.694;6.256;2023-05-17T09:14:34;22.80;75.90
3923;DHT22;1976;51.694;6.256;2023-05-17T09:17:00;23.00;77.00
3923;DHT22;1976;51.694;6.256;2023-05-17T09:19:26;22.90;72.90
3923;DHT22;1976;51.694;6.256;2023-05-17T09:21:56;22.70;72.60
3923;DHT22;1976;51.694;6.256;2023-05-17T09:24:28;23.40;75.10
3923;DHT22;1976;51.694;6.256;2023-05-17T09:27:00;24.20;75.10
3923;DHT22;1976;51.694;6.256;2023-05-17T09:29:30;24.90;71.00
3923;DHT22;1976;51.694;6.256;2023-05-17T09:31:55;25.80;68.50
3923;DHT22;1976;51.694;6.256;2023-05-17T09:34:23;26.90;67.10
3923;DHT22;1976;51.694;6.256;2023-05-17T09:36:49;28.30;64.90
3923;DHT22;1976;51.694;6.256;2023-05-17T09:39:16;29.80;60.40
3923;DHT22;1976;51.694;6.256;2023-05-17T09:41:46;31.00;56.60
3923;DHT22;1976;51.694;6.256;2023-05-17T09:44:13;32.00;52.60
3923;DHT22;1976;51.694;6.256;2023-05-17T09:46:46;32.50;49.30
3923;DHT22;1976;51.694;6.256;2023-05-17T09:49:13;33.10;47.10
3923;DHT22;1976;51.694;6.256;2023-05-17T09:51:43;33.40;46.40
3923;DHT22;1976;51.694;6.256;2023-05-17T09:54:10;32.90;44.60
3923;DHT22;1976;51.694;6.256;2023-05-17T09:56:36;33.70;43.90
3923;DHT22;1976;51.694;6.256;2023-05-17T09:59:03;34.70;42.20
3923;DHT22;1976;51.694;6.256;2023-05-17T10:01:30;35.30;41.50
3923;DHT22;1976;51.694;6.256;2023-05-17T10:04:00;36.20;40.80
3923;DHT22;1976;51.694;6.256;2023-05-17T10:06:29;35.70;38.50
3923;DHT22;1976;51.694;6.256;2023-05-17T10:08:59;35.40;38.50
3923;DHT22;1976;51.694;6.256;2023-05-17T10:11:28;34.90;37.80
3923;DHT22;1976;51.694;6.256;2023-05-17T10:16:32;33.80;38.70
3923;DHT22;1976;51.694;6.256;2023-05-17T10:19:02;35.30;40.70
3923;DHT22;1976;51.694;6.256;2023-05-17T10:21:29;36.80;37.40
3923;DHT22;1976;51.694;6.256;2023-05-17T10:23:59;37.10;34.70
3923;DHT22;1976;51.694;6.256;2023-05-17T10:26:26;37.70;35.50
3923;DHT22;1976;51.694;6.256;2023-05-17T10:28:57;38.50;34.70
3923;DHT22;1976;51.694;6.256;2023-05-17T10:31:28;39.10;34.10
3923;DHT22;1976;51.694;6.256;2023-05-17T10:33:55;39.60;33.40
3923;DHT22;1976;51.694;6.256;2023-05-17T10:36:22;39.90;33.00
3923;DHT22;1976;51.694;6.256;2023-05-17T10:38:48;39.70;31.00
3923;DHT22;1976;51.694;6.256;2023-05-17T10:41:15;39.50;30.20
3923;DHT22;1976;51.694;6.256;2023-05-17T10:43:42;39.30;31.00
3923;DHT22;1976;51.694;6.256;2023-05-17T10:46:15;39.50;30.00
3923;DHT22;1976;51.694;6.256;2023-05-17T10:48:43;39.20;29.80
3923;DHT22;1976;51.694;6.256;2023-05-17T10:51:10;37.90;30.00
3923;DHT22;1976;51.694;6.256;2023-05-17T10:56:30;37.70;30.30
3923;DHT22;1976;51.694;6.256;2023-05-17T10:59:19;37.80;29.40
3923;DHT22;1976;51.694;6.256;2023-05-17T11:06:54;36.70;30.20
3923;DHT22;1976;51.694;6.256;2023-05-17T11:09:39;37.80;30.00
3923;DHT22;1976;51.694;6.256;2023-05-17T11:12:07;37.60;29.30
3923;DHT22;1976;51.694;6.256;2023-05-17T11:17:22;36.90;28.80
3923;DHT22;1976;51.694;6.256;2023-05-17T11:22:24;40.30;28.50
3923;DHT22;1976;51.694;6.256;2023-05-17T11:24:56;41.10;26.90
3923;DHT22;1976;51.694;6.256;2023-05-17T11:37:36;40.20;25.30
3923;DHT22;1976;51.694;6.256;2023-05-17T11:40:23;40.00;26.10
3923;DHT22;1976;51.694;6.256;2023-05-17T11:42:54;39.80;27.20
3923;DHT22;1976;51.694;6.256;2023-05-17T11:48:12;40.70;25.80
3923;DHT22;1976;51.694;6.256;2023-05-17T11:50:40;40.80;25.30
3923;DHT22;1976;51.694;6.256;2023-05-17T11:53:06;40.80;25.80
3923;DHT22;1976;51.694;6.256;2023-05-17T11:55:37;40.60;25.70
3923;DHT22;1976;51.694;6.256;2023-05-17T11:58:08;40.60;25.90
3923;DHT22;1976;51.694;6.256;2023-05-17T12:00:34;40.90;26.10
3923;DHT22;1976;51.694;6.256;2023-05-17T12:05:41;41.10;25.40
3923;DHT22;1976;51.694;6.256;2023-05-17T12:08:07;41.00;25.60
3923;DHT22;1976;51.694;6.256;2023-05-17T12:10:33;43.10;26.10
3923;DHT22;1976;51.694;6.256;2023-05-17T12:12:59;42.00;25.30
3923;DHT22;1976;51.694;6.256;2023-05-17T12:15:26;42.50;24.80
3923;DHT22;1976;51.694;6.256;2023-05-17T12:17:54;42.80;25.00
3923;DHT22;1976;51.694;6.256;2023-05-17T12:20:19;42.90;24.10
3923;DHT22;1976;51.694;6.256;2023-05-17T12:22:52;43.30;23.90
3923;DHT22;1976;51.694;6.256;2023-05-17T12:25:22;43.70;24.00
3923;DHT22;1976;51.694;6.256;2023-05-17T12:27:53;44.00;23.40
3923;DHT22;1976;51.694;6.256;2023-05-17T12:30:19;44.30;23.90
3923;DHT22;1976;51.694;6.256;2023-05-17T12:32:45;44.10;23.30
3923;DHT22;1976;51.694;6.256;2023-05-17T12:35:11;44.10;23.50
3923;DHT22;1976;51.694;6.256;2023-05-17T12:37:37;43.80;23.80
3923;DHT22;1976;51.694;6.256;2023-05-17T12:40:04;43.20;24.10
3923;DHT22;1976;51.694;6.256;2023-05-17T12:42:31;42.70;25.00
3923;DHT22;1976;51.694;6.256;2023-05-17T12:44:59;42.60;24.80
3923;DHT22;1976;51.694;6.256;2023-05-17T12:47:30;42.30;23.30
3923;DHT22;1976;51.694;6.256;2023-05-17T12:49:56;42.70;23.60
3923;DHT22;1976;51.694;6.256;2023-05-17T12:52:24;40.10;21.40
3923;DHT22;1976;51.694;6.256;2023-05-17T12:54:50;43.70;23.40
3923;DHT22;1976;51.694;6.256;2023-05-17T12:57:16;43.80;22.20
3923;DHT22;1976;51.694;6.256;2023-05-17T12:59:47;43.90;22.60
3923;DHT22;1976;51.694;6.256;2023-05-17T13:02:12;44.20;23.10
3923;DHT22;1976;51.694;6.256;2023-05-17T13:04:38;44.30;22.80
3923;DHT22;1976;51.694;6.256;2023-05-17T13:07:04;43.60;22.10
3923;DHT22;1976;51.694;6.256;2023-05-17T13:09:32;43.60;22.80
3923;DHT22;1976;51.694;6.256;2023-05-17T13:12:00;43.90;22.20
3923;DHT22;1976;51.694;6.256;2023-05-17T13:14:38;43.90;22.50
3923;DHT22;1976;51.694;6.256;2023-05-17T13:17:09;43.90;22.90
3923;DHT22;1976;51.694;6.256;2023-05-17T13:24:33;42.10;23.60
3923;DHT22;1976;51.694;6.256;2023-05-17T13:27:00;41.40;23.60
3923;DHT22;1976;51.694;6.256;2023-05-17T13:34:18;40.90;23.80
3923;DHT22;1976;51.694;6.256;2023-05-17T13:51:23;41.10;22.30
3923;DHT22;1976;51.694;6.256;2023-05-17T13:53:52;40.80;22.10
3923;DHT22;1976;51.694;6.256;2023-05-17T13:58:44;40.80;22.10
3923;DHT22;1976;51.694;6.256;2023-05-17T14:06:03;41.40;22.80
3923;DHT22;1976;51.694;6.256;2023-05-17T14:08:29;41.10;21.70
3923;DHT22;1976;51.694;6.256;2023-05-17T14:13:21;40.40;22.60
3923;DHT22;1976;51.694;6.256;2023-05-17T14:15:46;40.00;22.50
3923;DHT22;1976;51.694;6.256;2023-05-17T14:23:04;38.80;24.00
3923;DHT22;1976;51.694;6.256;2023-05-17T14:25:30;38.40;24.10
3923;DHT22;1976;51.694;6.256;2023-05-17T14:30:23;37.20;23.80
3923;DHT22;1976;51.694;6.256;2023-05-17T14:40:10;35.70;25.50
3923;DHT22;1976;51.694;6.256;2023-05-17T14:42:37;35.30;25.20
3923;DHT22;1976;51.694;6.256;2023-05-17T14:52:21;34.60;25.50
3923;DHT22;1976;51.694;6.256;2023-05-17T14:57:13;34.50;25.10
3923;DHT22;1976;51.694;6.256;2023-05-17T15:06:57;33.10;27.00
3923;DHT22;1976;51.694;6.256;2023-05-17T15:09:23;32.90;27.10
3923;DHT22;1976;51.694;6.256;2023-05-17T15:14:16;32.50;27.30
3923;DHT22;1976;51.694;6.256;2023-05-17T15:16:47;32.30;27.20
3923;DHT22;1976;51.694;6.256;2023-05-17T15:21:41;32.40;26.70
3923;DHT22;1976;51.694;6.256;2023-05-17T15:31:25;31.90;27.60
3923;DHT22;1976;51.694;6.256;2023-05-17T15:36:18;32.30;26.40
3923;DHT22;1976;51.694;6.256;2023-05-17T15:38:44;32.30;26.30
3923;DHT22;1976;51.694;6.256;2023-05-17T15:41:14;32.10;26.00
3923;DHT22;1976;51.694;6.256;2023-05-17T15:43:41;31.90;27.30
3923;DHT22;1976;51.694;6.256;2023-05-17T15:46:07;31.80;27.20
3923;DHT22;1976;51.694;6.256;2023-05-17T15:48:33;31.40;26.40
3923;DHT22;1976;51.694;6.256;2023-05-17T15:55:52;31.40;27.90
3923;DHT22;1976;51.694;6.256;2023-05-17T15:58:23;31.30;27.10
3923;DHT22;1976;51.694;6.256;2023-05-17T16:05:42;30.20;29.10
3923;DHT22;1976;51.694;6.256;2023-05-17T16:10:35;29.40;29.50
3923;DHT22;1976;51.694;6.256;2023-05-17T16:37:27;26.80;32.90
3923;DHT22;1976;51.694;6.256;2023-05-17T16:57:00;25.10;33.80
3923;DHT22;1976;51.694;6.256;2023-05-17T16:59:26;24.40;35.10
3923;DHT22;1976;51.694;6.256;2023-05-17T17:01:52;24.00;35.60
3923;DHT22;1976;51.694;6.256;2023-05-17T17:11:36;22.70;38.40
3923;DHT22;1976;51.694;6.256;2023-05-17T17:14:02;22.50;36.90
3923;DHT22;1976;51.694;6.256;2023-05-17T17:23:59;21.70;38.20
3923;DHT22;1976;51.694;6.256;2023-05-17T17:28:54;21.40;39.00
3923;DHT22;1976;51.694;6.256;2023-05-17T17:48:23;20.20;40.70
3923;DHT22;1976;51.694;6.256;2023-05-17T17:53:16;19.90;41.40
3923;DHT22;1976;51.694;6.256;2023-05-17T17:55:41;19.80;41.60
3923;DHT22;1976;51.694;6.256;2023-05-17T17:58:07;19.70;41.10
3923;DHT22;1976;51.694;6.256;2023-05-17T18:10:17;19.40;44.00
3923;DHT22;1976;51.694;6.256;2023-05-17T18:12:43;19.30;43.20
3923;DHT22;1976;51.694;6.256;2023-05-17T18:17:36;19.10;43.50
3923;DHT22;1976;51.694;6.256;2023-05-17T18:20:02;18.90;44.50
3923;DHT22;1976;51.694;6.256;2023-05-17T18:32:12;18.30;44.60
3923;DHT22;1976;51.694;6.256;2023-05-17T18:37:04;17.90;45.50
3923;DHT22;1976;51.694;6.256;2023-05-17T18:39:30;17.90;46.10
3923;DHT22;1976;51.694;6.256;2023-05-17T18:51:40;17.50;50.30
3923;DHT22;1976;51.694;6.256;2023-05-17T18:54:07;17.40;49.80
3923;DHT22;1976;51.694;6.256;2023-05-17T18:56:33;17.30;50.00
3923;DHT22;1976;51.694;6.256;2023-05-17T19:01:25;17.10;51.50
3923;DHT22;1976;51.694;6.256;2023-05-17T19:06:21;16.90;51.40
3923;DHT22;1976;51.694;6.256;2023-05-17T19:08:49;16.80;52.00
3923;DHT22;1976;51.694;6.256;2023-05-17T19:38:05;15.20;60.90
3923;DHT22;1976;51.694;6.256;2023-05-17T19:50:18;14.70;63.10
3923;DHT22;1976;51.694;6.256;2023-05-17T19:52:44;14.60;64.80
3923;DHT22;1976;51.694;6.256;2023-05-17T19:55:10;14.60;66.30
3923;DHT22;1976;51.694;6.256;2023-05-17T20:00:04;14.50;68.50
3923;DHT22;1976;51.694;6.256;2023-05-17T20:02:30;14.40;68.40
3923;DHT22;1976;51.694;6.256;2023-05-17T20:04:56;14.40;68.70
3923;DHT22;1976;51.694;6.256;2023-05-17T20:07:22;14.30;69.00
3923;DHT22;1976;51.694;6.256;2023-05-17T20:46:26;13.20;75.20
3923;DHT22;1976;51.694;6.256;2023-05-17T20:56:14;12.80;81.10
3923;DHT22;1976;51.694;6.256;2023-05-17T21:06:03;12.60;86.90
3923;DHT22;1976;51.694;6.256;2023-05-17T21:08:30;12.50;88.20
3923;DHT22;1976;51.694;6.256;2023-05-17T21:15:54;12.40;90.00
3923;DHT22;1976;51.694;6.256;2023-05-17T22:02:14;13.70;86.90
3923;DHT22;1976;51.694;6.256;2023-05-17T22:11:58;13.60;86.90
3923;DHT22;1976;51.694;6.256;2023-05-17T22:16:51;13.30;87.20
3923;DHT22;1976;51.694;6.256;2023-05-17T22:19:23;13.20;88.10
3923;DHT22;1976;51.694;6.256;2023-05-17T22:21:49;13.10;88.20
3923;DHT22;1976;51.694;6.256;2023-05-17T22:24:14;13.10;88.30
3923;DHT22;1976;51.694;6.256;2023-05-17T22:31:33;12.90;90.00
3923;DHT22;1976;51.694;6.256;2023-05-17T22:34:03;12.90;90.00
3923;DHT22;1976;51.694;6.256;2023-05-17T22:36:28;13.00;89.70
3923;DHT22;1976;51.694;6.256;2023-05-17T22:38:57;13.10;89.20
3923;DHT22;1976;51.694;6.256;2023-05-17T22:41:23;13.10;89.00
3923;DHT22;1976;51.694;6.256;2023-05-17T22:46:15;13.00;88.80
3923;DHT22;1976;51.694;6.256;2023-05-17T22:51:07;12.90;88.80
3923;DHT22;1976;51.694;6.256;2023-05-17T22:53:33;12.90;88.80
3923;DHT22;1976;51.694;6.256;2023-05-17T23:10:38;12.60;88.90
3923;DHT22;1976;51.694;6.256;2023-05-17T23:13:04;12.50;89.20
3923;DHT22;1976;51.694;6.256;2023-05-17T23:15:30;12.60;89.00
3923;DHT22;1976;51.694;6.256;2023-05-17T23:17:59;12.50;89.20
3923;DHT22;1976;51.694;6.256;2023-05-17T23:22:50;12.40;90.00
3923;DHT22;1976;51.694;6.256;2023-05-17T23:30:13;12.40;90.40
3923;DHT22;1976;51.694;6.256;2023-05-17T23:35:07;12.30;90.50
3923;DHT22;1976;51.694;6.256;2023-05-17T23:49:46;11.80;90.70
3923;DHT22;1976;51.694;6.256;2023-05-17T23:52:12;11.70;90.90
3923;DHT22;1976;51.694;6.256;2023-05-17T23:57:05;11.50;91.20
3923;DHT22;1976;51.694;6.256;2023-05-17T23:59:31;11.40;91.50
